Flugplatz Achmer

Für EDXA sind keine METAR/TAF Berichte vorhanden.
Es werden die Flugwettermeldungen vom Flugplatz Münster Osnabrück in 31 km Entfernung angezeigt.

Bericht für EDDG

vom 25.01. um 23:50 UTC

variable Windrichtung mit 2 kt

Sichtweite 700 m

Nebel

bedeckt in 100 ft

Temperatur 1.0°C

Taupunkt 1.0°C

Luftfeuchtigkeit 100%

Luftdruck 1019 hPa

EDDG 252350Z VRB02KT 0700 R25/1400D FG OVC001 01/01 Q1019 TEMPO 0500

Prognose für EDDG

vom 25.01. um 00:00 UTC

Zwischen 00:00 UTC und 00:00 UTC

Wind 5 kt aus 160°

Sichtweite 1200 m

feuchter Dunst

bedeckt in 200 ft


Zwischen 00:00 UTC und 00:00 UTC zeitweise

Sichtweite 500 m

Nebel

bedeckt


Zwischen 00:00 und 00:00 UTC übergehend zu

Wind 5 kt aus 160°

Sichtweite 2500 m

feuchter Dunst

bedeckt in 200 ft


Zwischen 00:00 und 00:00 UTC übergehend zu

Wind 5 kt aus 160°

Sichtweite 4000 m

feuchter Dunst

aufgelockert bewölkt in 300 ft

aufgebrochene Bewölkung in 1500 ft


Zwischen 00:00 UTC und 00:00 UTC zeitweise

aufgebrochene Bewölkung in 800 ft


Zwischen 00:00 und 00:00 UTC übergehend zu

Wind 5 kt aus 160°

Sichtweite 10 km oder mehr

feuchter Dunst

aufgelockert bewölkt in 300 ft

aufgebrochene Bewölkung in 1500 ft

TAF EDDG 252300Z 2600/2624 16005KT 1200 BR OVC002 TEMPO 2600/2606 0500 FG OVC000 BECMG 2602/2605 2500 BR BECMG 2607/2610 4000 BR SCT003 BKN015 BECMG 2610/2612 9999 TEMPO 2610/2612 BKN008
Impressum